Time;durP1;ratioP1;P1;durP2;ratioP2;P2;SDS_P1;SDS_P2;PMS_P1;PMS_P2;Temp;Humidity;BMP_temperature;BMP_pressure;BME280_temperature;BME280_humidity;BME280_pressure;Samples;Min_cycle;Max_cycle;Signal;HPM_P1;HPM_P2
2024/01/12 00:01:17;;;;;;;;;;;;;;;8.74;68.02;103645.13;7360742;19;19932;-64
2024/01/12 00:03:42;;;;;;;;;;;;;;;8.72;68.49;103644.22;7359506;19;19949;-64
2024/01/12 00:06:08;;;;;;;;;;;;;;;8.71;68.08;103639.81;7361383;19;19922;-64
2024/01/12 00:08:33;;;;;;;;;;;;;;;8.71;68.28;103639.81;7357761;19;20628;-64
2024/01/12 00:10:58;;;;;;;;;;;;;;;8.71;68.54;103639.81;7356064;19;19971;-64
2024/01/12 00:13:24;;;;;;;;;;;;;;;8.69;68.09;103636.28;7361316;19;20620;-64
2024/01/12 00:15:49;;;;;;;;;;;;;;;8.53;68.34;103609.75;7359722;19;19927;-64
2024/01/12 00:18:14;;;;;;;;;;;;;;;8.68;68.33;103631.91;7365676;19;19927;-64
2024/01/12 00:20:43;;;;;;;;;;;;;;;8.67;68.10;103632.72;7361113;19;19925;-63
2024/01/12 00:23:08;;;;;;;;;;;;;;;8.68;68.40;103626.72;7358959;19;19923;-65
2024/01/12 00:25:34;;;;;;;;;;;;;;;8.67;68.41;103628.44;7355067;19;19943;-64
2024/01/12 00:27:59;;;;;;;;;;;;;;;8.66;68.24;103633.56;7365725;19;19914;-64
2024/01/12 00:30:24;;;;;;;;;;;;;;;8.67;68.39;103630.13;7348225;19;19951;-64
2024/01/12 00:32:49;;;;;;;;;;;;;;;8.66;68.33;103626.63;7352348;19;19919;-64
2024/01/12 00:35:15;;;;;;;;;;;;;;;8.67;68.55;103632.72;7349653;19;19919;-64
2024/01/12 00:37:40;;;;;;;;;;;;;;;8.67;68.51;103627.53;7360681;19;19986;-64
2024/01/12 00:40:06;;;;;;;;;;;;;;;8.67;68.51;103630.13;7357408;19;20353;-64
2024/01/12 00:42:31;;;;;;;;;;;;;;;8.67;68.15;103630.13;7363107;19;19926;-64
2024/01/12 00:44:57;;;;;;;;;;;;;;;8.66;68.53;103626.63;7360342;19;19923;-64
2024/01/12 00:47:22;;;;;;;;;;;;;;;8.66;68.14;103630.97;7361025;19;19923;-65
2024/01/12 00:49:47;;;;;;;;;;;;;;;8.66;68.14;103625.75;7360912;19;19930;-64
2024/01/12 00:52:12;;;;;;;;;;;;;;;8.66;68.50;103620.53;7363336;19;19923;-64
2024/01/12 00:54:38;;;;;;;;;;;;;;;8.65;68.39;103614.47;7360888;19;20766;-64
2024/01/12 00:57:03;;;;;;;;;;;;;;;8.64;68.61;103617.91;7356059;19;19974;-64
2024/01/12 00:59:28;;;;;;;;;;;;;;;8.64;68.53;103614.41;7362260;19;20486;-64
2024/01/12 01:01:58;;;;;;;;;;;;;;;8.63;68.16;103610.94;7359332;19;19922;-64
2024/01/12 01:04:25;;;;;;;;;;;;;;;8.64;68.54;103611.81;7359300;19;19941;-64
2024/01/12 01:06:51;;;;;;;;;;;;;;;8.63;68.25;103610.06;7366362;19;19959;-64
2024/01/12 01:09:16;;;;;;;;;;;;;;;8.62;68.19;103609.16;7363312;19;20394;-64
2024/01/12 01:11:41;;;;;;;;;;;;;;;8.63;68.19;103615.25;7357608;19;19926;-64
2024/01/12 01:14:06;;;;;;;;;;;;;;;8.63;68.53;103610.06;7361743;19;19926;-64
2024/01/12 01:16:32;;;;;;;;;;;;;;;8.62;68.52;103609.16;7361471;19;19919;-64
2024/01/12 01:18:57;;;;;;;;;;;;;;;8.62;68.52;103608.25;7370481;19;19938;-64
2024/01/12 01:21:22;;;;;;;;;;;;;;;8.62;68.51;103608.25;7361644;19;19939;-64
2024/01/12 01:23:47;;;;;;;;;;;;;;;8.61;68.30;103611.69;7360770;19;20093;-64
2024/01/12 01:26:13;;;;;;;;;;;;;;;8.60;68.58;103607.34;7359260;19;20330;-64
2024/01/12 01:28:38;;;;;;;;;;;;;;;8.60;68.14;103609.94;7358155;19;19939;-64
2024/01/12 01:31:03;;;;;;;;;;;;;;;8.58;68.08;103602.09;7358825;19;19929;-64
2024/01/12 01:33:28;;;;;;;;;;;;;;;8.57;68.35;103596.00;7359334;19;19911;-64
2024/01/12 01:35:54;;;;;;;;;;;;;;;8.58;68.48;103602.09;7360085;19;20229;-64
2024/01/12 01:38:19;;;;;;;;;;;;;;;8.56;68.14;103594.19;7358705;19;19911;-64
2024/01/12 01:40:45;;;;;;;;;;;;;;;8.57;68.12;103596.00;7350114;19;19915;-64
2024/01/12 01:43:10;;;;;;;;;;;;;;;8.55;68.40;103589.84;7358242;19;19926;-63
2024/01/12 01:45:36;;;;;;;;;;;;;;;8.57;68.26;103584.69;7367011;19;20052;-64
2024/01/12 01:48:05;;;;;;;;;;;;;;;8.56;68.26;103589.00;7357295;19;20607;-64
2024/01/12 01:50:31;;;;;;;;;;;;;;;8.55;68.48;103582.00;7361902;19;19919;-64
2024/01/12 01:52:56;;;;;;;;;;;;;;;8.55;68.50;103582.00;7355211;19;19919;-64
2024/01/12 01:55:22;;;;;;;;;;;;;;;8.55;68.60;103587.22;7357792;19;19947;-64
2024/01/12 01:57:48;;;;;;;;;;;;;;;8.55;68.35;103586.34;7360809;19;20362;-64
2024/01/12 02:00:13;;;;;;;;;;;;;;;8.55;68.17;103584.63;7360092;19;19919;-64
2024/01/12 02:02:39;;;;;;;;;;;;;;;8.55;68.61;103576.81;7360664;19;20787;-64
2024/01/12 02:05:05;;;;;;;;;;;;;;;8.56;68.54;103581.16;7358069;19;19926;-65
2024/01/12 02:07:31;;;;;;;;;;;;;;;8.55;68.39;103588.94;7359908;19;20692;-65
2024/01/12 02:09:57;;;;;;;;;;;;;;;8.49;68.60;103574.00;7361233;19;19911;-65
2024/01/12 02:12:22;;;;;;;;;;;;;;;8.54;68.18;103577.66;7360970;19;20006;-64
2024/01/12 02:14:47;;;;;;;;;;;;;;;8.52;68.46;103574.13;7357479;19;19939;-64
2024/01/12 02:17:13;;;;;;;;;;;;;;;8.51;68.11;103572.34;7361270;19;20320;-64
2024/01/12 02:19:38;;;;;;;;;;;;;;;8.50;68.32;103567.97;7357403;19;19919;-64
2024/01/12 02:22:03;;;;;;;;;;;;;;;8.47;68.28;103557.47;7353196;19;19983;-64
2024/01/12 02:24:28;;;;;;;;;;;;;;;8.48;68.37;103559.22;7366422;19;19939;-64
2024/01/12 02:26:54;;;;;;;;;;;;;;;8.47;68.13;103562.69;7357984;19;19927;-64
2024/01/12 02:29:19;;;;;;;;;;;;;;;8.47;68.25;103562.69;7336951;19;19926;-64
2024/01/12 02:31:45;;;;;;;;;;;;;;;8.47;68.39;103562.69;7355923;19;19926;-64
2024/01/12 02:34:11;;;;;;;;;;;;;;;8.46;68.38;103566.09;7357736;19;19927;-65
2024/01/12 02:36:37;;;;;;;;;;;;;;;8.47;68.08;103557.47;7361051;19;19919;-64
2024/01/12 02:39:03;;;;;;;;;;;;;;;8.47;68.40;103554.88;7358896;19;19919;-64
2024/01/12 02:41:28;;;;;;;;;;;;;;;8.47;68.57;103549.66;7359756;19;20266;-64
2024/01/12 02:43:53;;;;;;;;;;;;;;;8.48;68.04;103555.75;7355323;19;19918;-64
2024/01/12 02:46:19;;;;;;;;;;;;;;;8.48;68.16;103553.16;7367261;19;20269;-64
2024/01/12 02:48:44;;;;;;;;;;;;;;;8.49;68.36;103549.69;7359619;19;19919;-64
2024/01/12 02:51:09;;;;;;;;;;;;;;;8.49;68.59;103544.50;7362463;19;19923;-64
2024/01/12 02:53:34;;;;;;;;;;;;;;;8.48;68.26;103546.22;7361289;19;19974;-65
2024/01/12 02:56:00;;;;;;;;;;;;;;;8.49;68.55;103539.28;7365670;19;19919;-64
2024/01/12 02:58:25;;;;;;;;;;;;;;;8.49;68.23;103540.16;7360306;19;19914;-64
2024/01/12 03:00:52;;;;;;;;;;;;;;;8.48;68.37;103538.41;7361723;19;19940;-64
2024/01/12 03:03:17;;;;;;;;;;;;;;;8.49;68.36;103545.38;7363529;19;20678;-64
2024/01/12 03:05:42;;;;;;;;;;;;;;;8.47;68.52;103536.63;7358523;19;20353;-64
2024/01/12 03:08:08;;;;;;;;;;;;;;;8.47;68.28;103535.75;7362545;19;19919;-64
2024/01/12 03:10:33;;;;;;;;;;;;;;;8.47;68.50;103535.75;7359898;19;19922;-64
2024/01/12 03:12:58;;;;;;;;;;;;;;;8.47;68.10;103531.44;7358124;19;19945;-64
2024/01/12 03:15:23;;;;;;;;;;;;;;;8.46;68.44;103528.75;7356029;19;19927;-64
2024/01/12 03:17:49;;;;;;;;;;;;;;;8.48;68.18;103533.19;7363242;19;19918;-64
2024/01/12 03:20:14;;;;;;;;;;;;;;;8.47;68.13;103528.81;7366538;19;19923;-64
2024/01/12 03:22:39;;;;;;;;;;;;;;;8.48;68.34;103522.78;7361391;19;19943;-64
2024/01/12 03:25:05;;;;;;;;;;;;;;;8.48;68.46;103525.38;7363710;19;19935;-64
2024/01/12 03:27:31;;;;;;;;;;;;;;;8.48;68.09;103530.59;7359874;19;19939;-64
2024/01/12 03:29:56;;;;;;;;;;;;;;;8.49;68.23;103534.94;7360290;19;19918;-64
2024/01/12 03:32:22;;;;;;;;;;;;;;;8.47;68.22;103528.81;7355756;19;20316;-64
2024/01/12 03:34:47;;;;;;;;;;;;;;;8.48;68.19;103533.19;7362693;19;19974;-64
2024/01/12 03:37:12;;;;;;;;;;;;;;;8.47;68.19;103534.03;7359239;19;19931;-63
2024/01/12 03:39:37;;;;;;;;;;;;;;;8.48;68.20;103533.19;7358916;19;19923;-64
2024/01/12 03:42:03;;;;;;;;;;;;;;;8.48;68.66;103529.69;7359509;19;20396;-66
2024/01/12 03:44:28;;;;;;;;;;;;;;;8.49;68.23;103531.47;7341062;19;19922;-65
2024/01/12 03:46:53;;;;;;;;;;;;;;;8.42;68.16;103513.91;7346562;19;19958;-65
2024/01/12 03:49:19;;;;;;;;;;;;;;;8.48;68.58;103520.16;7362554;19;19919;-64
2024/01/12 03:51:47;;;;;;;;;;;;;;;8.47;68.61;103531.44;7363518;19;19927;-63
2024/01/12 03:54:12;;;;;;;;;;;;;;;8.48;68.45;103521.88;7359174;19;19923;-64
2024/01/12 03:56:37;;;;;;;;;;;;;;;8.47;68.40;103521.00;7367055;19;19930;-64
2024/01/12 03:59:03;;;;;;;;;;;;;;;8.47;68.34;103515.81;7354601;19;19926;-64
2024/01/12 04:01:28;;;;;;;;;;;;;;;8.47;68.14;103515.81;7358393;19;19918;-64
2024/01/12 04:03:53;;;;;;;;;;;;;;;8.47;68.37;103514.91;7361402;19;20355;-64
2024/01/12 04:06:18;;;;;;;;;;;;;;;8.46;68.42;103514.00;7362324;19;19934;-64
2024/01/12 04:08:44;;;;;;;;;;;;;;;8.46;68.39;103503.59;7360634;19;19938;-65
2024/01/12 04:11:09;;;;;;;;;;;;;;;8.45;68.57;103507.03;7351935;19;19919;-64
2024/01/12 04:13:34;;;;;;;;;;;;;;;8.45;68.23;103504.44;7355744;19;20504;-64
2024/01/12 04:15:59;;;;;;;;;;;;;;;8.45;68.49;103503.56;7369252;19;19919;-64
2024/01/12 04:18:25;;;;;;;;;;;;;;;8.43;68.52;103498.31;7343049;19;19939;-64
2024/01/12 04:20:50;;;;;;;;;;;;;;;8.43;68.58;103494.81;7372249;19;19919;-64
2024/01/12 04:23:15;;;;;;;;;;;;;;;8.43;68.14;103500.03;7369676;19;19998;-64
2024/01/12 04:25:40;;;;;;;;;;;;;;;8.43;68.37;103495.72;7369335;19;19919;-64
2024/01/12 04:28:06;;;;;;;;;;;;;;;8.42;68.57;103496.56;7368170;19;19939;-64
2024/01/12 04:30:31;;;;;;;;;;;;;;;8.43;68.54;103494.81;7367634;19;20260;-64
2024/01/12 04:32:56;;;;;;;;;;;;;;;8.43;68.38;103487.91;7362578;19;19918;-64
2024/01/12 04:35:22;;;;;;;;;;;;;;;8.43;68.30;103493.09;7360084;19;19945;-64
2024/01/12 04:37:47;;;;;;;;;;;;;;;8.42;68.35;103491.34;7368356;19;19922;-64
2024/01/12 04:40:12;;;;;;;;;;;;;;;8.42;68.57;103496.56;7367004;19;19942;-64
2024/01/12 04:42:37;;;;;;;;;;;;;;;8.42;68.30;103496.56;7363286;19;19918;-64
2024/01/12 04:45:03;;;;;;;;;;;;;;;8.43;68.44;103490.50;7368609;19;20301;-64
2024/01/12 04:47:30;;;;;;;;;;;;;;;8.41;68.51;103489.53;7364307;19;19919;-64
2024/01/12 04:49:55;;;;;;;;;;;;;;;8.42;68.29;103490.47;7365233;19;19918;-64
2024/01/12 04:52:21;;;;;;;;;;;;;;;8.41;68.45;103489.53;7362465;19;20631;-64
2024/01/12 04:54:46;;;;;;;;;;;;;;;8.41;68.50;103489.53;7366597;19;19926;-64
2024/01/12 04:57:11;;;;;;;;;;;;;;;8.40;68.28;103479.97;7360927;19;19919;-64
2024/01/12 04:59:36;;;;;;;;;;;;;;;8.40;68.14;103484.31;7374677;19;19987;-64
2024/01/12 05:02:02;;;;;;;;;;;;;;;8.40;68.63;103487.78;7363859;19;19907;-64
2024/01/12 05:04:27;;;;;;;;;;;;;;;8.41;68.59;103480.84;7366104;19;19920;-64
2024/01/12 05:06:52;;;;;;;;;;;;;;;8.39;68.17;103486.03;7368193;19;19949;-64
2024/01/12 05:09:17;;;;;;;;;;;;;;;8.41;68.46;103475.66;7365296;19;19927;-65
2024/01/12 05:11:43;;;;;;;;;;;;;;;8.40;68.36;103474.75;7367438;19;20336;-64
2024/01/12 05:14:08;;;;;;;;;;;;;;;8.39;68.62;103480.81;7365632;19;19994;-64
2024/01/12 05:16:33;;;;;;;;;;;;;;;8.40;68.34;103472.16;7365917;19;19979;-64
2024/01/12 05:18:58;;;;;;;;;;;;;;;8.39;68.70;103475.59;7367694;19;19927;-64
2024/01/12 05:21:24;;;;;;;;;;;;;;;8.39;68.67;103469.53;7367651;19;20556;-64
2024/01/12 05:23:49;;;;;;;;;;;;;;;8.40;68.73;103469.56;7362247;19;19923;-64
2024/01/12 05:26:14;;;;;;;;;;;;;;;8.39;68.64;103465.19;7362528;19;19915;-64
2024/01/12 05:28:39;;;;;;;;;;;;;;;8.39;68.57;103459.09;7361339;19;19934;-64
2024/01/12 05:31:05;;;;;;;;;;;;;;;8.38;68.59;103453.03;7367505;19;19919;-64
2024/01/12 05:33:30;;;;;;;;;;;;;;;8.39;68.32;103453.91;7362743;19;20446;-64
2024/01/12 05:35:56;;;;;;;;;;;;;;;8.29;68.29;103437.06;7364736;19;19925;-64
2024/01/12 05:38:21;;;;;;;;;;;;;;;8.38;68.36;103458.22;7358893;19;19922;-64
2024/01/12 05:40:46;;;;;;;;;;;;;;;8.38;68.41;103453.03;7358157;19;19919;-64
2024/01/12 05:43:12;;;;;;;;;;;;;;;8.37;68.48;103446.06;7362007;19;19982;-65
2024/01/12 05:45:37;;;;;;;;;;;;;;;8.38;68.67;103444.31;7357475;19;20386;-64
2024/01/12 05:48:02;;;;;;;;;;;;;;;8.38;68.24;103440.00;7361604;19;20704;-64
2024/01/12 05:50:27;;;;;;;;;;;;;;;8.39;68.72;103448.69;7360434;19;20725;-64
2024/01/12 05:52:53;;;;;;;;;;;;;;;8.38;68.36;103440.00;7360817;19;19925;-64
2024/01/12 05:55:18;;;;;;;;;;;;;;;8.38;68.54;103442.59;7365887;19;19947;-64
2024/01/12 05:57:43;;;;;;;;;;;;;;;8.38;68.70;103440.00;7365841;19;20327;-64
2024/01/12 06:00:09;;;;;;;;;;;;;;;8.38;68.46;103442.59;7364849;19;20265;-64
2024/01/12 06:02:34;;;;;;;;;;;;;;;8.39;68.27;103449.56;7363605;19;19930;-64
2024/01/12 06:05:00;;;;;;;;;;;;;;;8.38;68.42;103447.81;7362638;19;19971;-64
2024/01/12 06:07:26;;;;;;;;;;;;;;;8.37;68.55;103453.84;7365264;19;19919;-64
2024/01/12 06:09:51;;;;;;;;;;;;;;;8.38;68.71;103450.41;7363495;19;19919;-64
2024/01/12 06:12:16;;;;;;;;;;;;;;;8.38;68.63;103445.22;7359691;19;19947;-64
2024/01/12 06:14:41;;;;;;;;;;;;;;;8.37;68.76;103451.25;7362824;19;19941;-64
2024/01/12 06:17:08;;;;;;;;;;;;;;;8.37;68.32;103451.25;7363726;19;20365;-64
2024/01/12 06:19:33;;;;;;;;;;;;;;;8.37;68.85;103446.06;7360637;19;20615;-64
2024/01/12 06:21:58;;;;;;;;;;;;;;;8.38;68.78;103447.81;7364093;19;19979;-64
2024/01/12 06:24:23;;;;;;;;;;;;;;;8.38;68.63;103447.81;7364115;19;19962;-64
2024/01/12 06:26:49;;;;;;;;;;;;;;;8.37;68.79;103447.78;7362373;19;20564;-64
2024/01/12 06:29:14;;;;;;;;;;;;;;;8.37;68.59;103446.06;7346400;19;19926;-63
2024/01/12 06:31:39;;;;;;;;;;;;;;;8.38;68.45;103452.13;7365033;19;19922;-64
2024/01/12 06:34:04;;;;;;;;;;;;;;;8.37;68.46;103456.47;7360614;19;19933;-64
2024/01/12 06:36:30;;;;;;;;;;;;;;;8.37;68.38;103451.25;7372485;19;19922;-63
2024/01/12 06:38:55;;;;;;;;;;;;;;;8.35;68.61;103447.66;7363748;19;19919;-64
2024/01/12 06:41:20;;;;;;;;;;;;;;;8.35;68.76;103442.47;7355720;19;19926;-64
2024/01/12 06:43:46;;;;;;;;;;;;;;;8.34;68.48;103440.69;7362798;19;19914;-63
2024/01/12 06:46:11;;;;;;;;;;;;;;;8.33;68.83;103438.94;7365340;19;19930;-64
2024/01/12 06:48:36;;;;;;;;;;;;;;;8.32;68.47;103442.38;7361648;19;19919;-64
2024/01/12 06:51:02;;;;;;;;;;;;;;;8.32;68.69;103447.59;7367590;19;20765;-65
2024/01/12 06:53:27;;;;;;;;;;;;;;;8.31;68.62;103448.41;7356019;19;19922;-64
2024/01/12 06:55:52;;;;;;;;;;;;;;;8.31;68.46;103443.19;7365723;19;19983;-64
2024/01/12 06:58:17;;;;;;;;;;;;;;;8.30;68.73;103450.13;7360442;19;19923;-64
2024/01/12 07:00:43;;;;;;;;;;;;;;;8.30;68.74;103449.25;7366186;19;19918;-64
2024/01/12 07:03:08;;;;;;;;;;;;;;;8.30;68.29;103454.47;7357579;19;19918;-64
2024/01/12 07:05:33;;;;;;;;;;;;;;;8.28;68.83;103445.72;7362653;19;19919;-64
2024/01/12 07:07:58;;;;;;;;;;;;;;;8.28;68.42;103443.13;7363381;19;19922;-64
2024/01/12 07:10:24;;;;;;;;;;;;;;;8.28;68.59;103450.94;7355467;19;19915;-64
2024/01/12 07:12:51;;;;;;;;;;;;;;;8.27;68.84;103443.97;7359650;19;19933;-64
2024/01/12 07:15:17;;;;;;;;;;;;;;;8.26;68.75;103453.50;7359536;19;19922;-63
2024/01/12 07:17:43;;;;;;;;;;;;;;;8.26;68.45;103452.59;7362697;19;20406;-64
2024/01/12 07:20:08;;;;;;;;;;;;;;;8.25;68.43;103435.22;7357558;19;19923;-64
2024/01/12 07:22:33;;;;;;;;;;;;;;;8.26;68.46;103447.38;7355048;19;19929;-64
2024/01/12 07:25:00;;;;;;;;;;;;;;;8.24;68.46;103433.44;7363230;19;19922;-64
2024/01/12 07:27:25;;;;;;;;;;;;;;;8.24;68.50;103438.66;7360665;19;19948;-64
2024/01/12 07:29:50;;;;;;;;;;;;;;;8.24;68.66;103433.44;7358390;19;20466;-64
2024/01/12 07:32:15;;;;;;;;;;;;;;;8.24;68.74;103441.25;7345666;19;20316;-64
2024/01/12 07:34:40;;;;;;;;;;;;;;;8.24;68.52;103438.66;7361709;19;19919;-63
2024/01/12 07:37:06;;;;;;;;;;;;;;;8.23;68.41;103434.28;7357357;19;20024;-63
2024/01/12 07:39:32;;;;;;;;;;;;;;;8.23;68.54;103436.91;7361505;19;19906;-64
2024/01/12 07:41:57;;;;;;;;;;;;;;;8.15;68.46;103431.44;7361745;19;19927;-63
2024/01/12 07:44:22;;;;;;;;;;;;;;;8.21;68.85;103438.53;7361337;19;19949;-64
2024/01/12 07:46:48;;;;;;;;;;;;;;;8.18;68.66;103428.06;7356333;19;19922;-64
2024/01/12 07:49:13;;;;;;;;;;;;;;;8.17;68.83;103431.50;7358243;19;19927;-64
2024/01/12 07:51:38;;;;;;;;;;;;;;;8.15;68.48;103434.03;7358160;19;20797;-65
2024/01/12 07:54:03;;;;;;;;;;;;;;;8.14;68.47;103432.28;7364392;19;20276;-64
2024/01/12 07:56:29;;;;;;;;;;;;;;;8.12;68.83;103438.28;7362122;19;20332;-64
2024/01/12 07:58:56;;;;;;;;;;;;;;;8.11;68.63;103436.50;7369434;19;20282;-64
2024/01/12 08:01:21;;;;;;;;;;;;;;;8.10;68.88;103439.94;7362992;19;19919;-64
2024/01/12 08:03:47;;;;;;;;;;;;;;;8.07;68.73;103436.41;7366160;19;20426;-64
2024/01/12 08:06:12;;;;;;;;;;;;;;;8.05;68.75;103432.88;7366376;19;19919;-64
2024/01/12 08:08:37;;;;;;;;;;;;;;;8.04;68.87;103430.22;7368913;19;19922;-64
2024/01/12 08:11:03;;;;;;;;;;;;;;;8.01;68.89;103436.22;7355329;19;19929;-63
2024/01/12 08:13:28;;;;;;;;;;;;;;;8.00;68.96;103439.63;7368534;19;20410;-64
2024/01/12 08:15:53;;;;;;;;;;;;;;;7.99;68.42;103437.88;7358359;19;20005;-64
2024/01/12 08:18:19;;;;;;;;;;;;;;;7.96;68.68;103435.19;7369570;19;19931;-64
2024/01/12 08:20:44;;;;;;;;;;;;;;;7.95;68.84;103435.13;7360629;19;19926;-63
2024/01/12 08:23:10;;;;;;;;;;;;;;;7.94;68.67;103439.44;7366659;19;19922;-64
2024/01/12 08:25:35;;;;;;;;;;;;;;;7.91;68.68;103439.38;7362782;19;19922;-63
2024/01/12 08:28:00;;;;;;;;;;;;;;;7.90;68.91;103437.59;7360963;19;19918;-64
2024/01/12 08:30:25;;;;;;;;;;;;;;;7.87;68.55;103437.50;7363619;19;19931;-64
2024/01/12 08:32:51;;;;;;;;;;;;;;;7.85;68.48;103441.75;7358419;19;19919;-63
2024/01/12 08:35:16;;;;;;;;;;;;;;;7.82;68.77;103444.28;7365702;19;19919;-64
2024/01/12 08:37:41;;;;;;;;;;;;;;;7.74;68.84;103428.41;7370301;19;20023;-64
2024/01/12 08:40:07;;;;;;;;;;;;;;;7.78;68.40;103434.59;7366363;19;19925;-64
2024/01/12 08:42:32;;;;;;;;;;;;;;;7.77;68.72;103435.44;7368659;19;20560;-64
2024/01/12 08:44:58;;;;;;;;;;;;;;;7.76;68.41;103433.69;7358260;19;19982;-64
2024/01/12 08:47:23;;;;;;;;;;;;;;;7.74;68.57;103424.91;7344306;19;20348;-63
2024/01/12 08:49:49;;;;;;;;;;;;;;;7.72;68.56;103431.81;7366967;19;19915;-64
2024/01/12 08:52:14;;;;;;;;;;;;;;;7.69;68.24;103442.97;7372264;19;19911;-63
2024/01/12 08:54:39;;;;;;;;;;;;;;;7.67;68.21;103439.44;7374367;19;20329;-64
2024/01/12 08:57:04;;;;;;;;;;;;;;;7.64;68.47;103439.34;7367038;19;19925;-64
2024/01/12 08:59:30;;;;;;;;;;;;;;;7.63;68.28;103439.28;7373312;19;19936;-64
2024/01/12 09:01:57;;;;;;;;;;;;;;;7.61;68.55;103438.38;7369444;19;20017;-64
2024/01/12 09:04:23;;;;;;;;;;;;;;;7.59;68.69;103432.22;7357193;19;19925;-64
2024/01/12 09:06:48;;;;;;;;;;;;;;;7.58;68.49;103438.25;7366983;19;21439;-64
2024/01/12 09:09:13;;;;;;;;;;;;;;;7.57;68.28;103436.50;7364431;19;19919;-64
2024/01/12 09:11:38;;;;;;;;;;;;;;;7.56;68.40;103432.13;7370479;19;19919;-64
2024/01/12 09:14:04;;;;;;;;;;;;;;;7.55;68.71;103428.63;7372207;19;19943;-64
2024/01/12 09:16:29;;;;;;;;;;;;;;;7.53;68.64;103425.97;7367107;19;19915;-65
2024/01/12 09:18:54;;;;;;;;;;;;;;;7.53;68.61;103428.56;7363243;19;20492;-64
2024/01/12 09:21:20;;;;;;;;;;;;;;;7.53;68.53;103425.97;7367336;19;19918;-64
2024/01/12 09:23:45;;;;;;;;;;;;;;;7.53;68.38;103420.78;7360522;19;19931;-64
2024/01/12 09:26:11;;;;;;;;;;;;;;;7.53;68.31;103420.78;7367787;19;19926;-64
2024/01/12 09:28:37;;;;;;;;;;;;;;;7.52;68.51;103415.53;7363433;19;19939;-64
2024/01/12 09:31:03;;;;;;;;;;;;;;;7.51;68.48;103419.84;7350232;19;19926;-64
2024/01/12 09:33:28;;;;;;;;;;;;;;;7.51;68.65;103417.25;7363733;19;19932;-64
2024/01/12 09:35:54;;;;;;;;;;;;;;;7.50;68.33;103410.28;7362817;19;19922;-64
2024/01/12 09:38:19;;;;;;;;;;;;;;;7.48;68.42;103417.13;7364886;19;20368;-64
2024/01/12 09:40:45;;;;;;;;;;;;;;;7.49;68.65;103420.63;7360419;19;20454;-65
2024/01/12 09:43:12;;;;;;;;;;;;;;;7.48;68.40;103417.13;7364451;19;19929;-64
2024/01/12 09:45:40;;;;;;;;;;;;;;;7.47;68.59;103407.56;7366416;19;20435;-64
2024/01/12 09:48:07;;;;;;;;;;;;;;;7.47;68.54;103409.28;7364526;19;20291;-64
2024/01/12 09:50:32;;;;;;;;;;;;;;;7.47;68.52;103406.69;7366159;19;19922;-64
2024/01/12 09:52:57;;;;;;;;;;;;;;;7.46;68.40;103408.41;7352598;19;20647;-64
2024/01/12 09:55:23;;;;;;;;;;;;;;;7.45;68.19;103417.06;7364959;19;19922;-64
2024/01/12 09:57:48;;;;;;;;;;;;;;;7.43;68.25;103413.50;7364306;19;19927;-64
2024/01/12 10:00:16;;;;;;;;;;;;;;;7.43;68.41;103407.41;7367094;19;19950;-64
2024/01/12 10:02:42;;;;;;;;;;;;;;;7.42;68.10;103406.53;7365953;19;19922;-64
2024/01/12 10:05:07;;;;;;;;;;;;;;;7.41;68.50;103399.59;7366333;19;19955;-64
2024/01/12 10:07:32;;;;;;;;;;;;;;;7.41;68.10;103396.97;7358099;19;20734;-64
2024/01/12 10:09:58;;;;;;;;;;;;;;;7.43;68.41;103391.81;7364085;19;19926;-63
2024/01/12 10:12:23;;;;;;;;;;;;;;;7.43;68.53;103391.81;7363228;19;19914;-64
2024/01/12 10:14:58;;;;;;;;;;;;;;;7.43;68.59;103395.31;7365095;19;19930;-64
2024/01/12 10:17:24;;;;;;;;;;;;;;;7.44;68.35;103394.47;7365980;19;19915;-63
2024/01/12 10:19:50;;;;;;;;;;;;;;;7.43;68.04;103392.69;7362093;19;19950;-64
2024/01/12 10:22:15;;;;;;;;;;;;;;;7.44;68.40;103391.88;7362712;19;19922;-64
2024/01/12 10:24:40;;;;;;;;;;;;;;;7.43;68.05;103395.31;7362035;19;19923;-64
2024/01/12 10:27:05;;;;;;;;;;;;;;;7.42;68.27;103390.94;7361341;19;20454;-64
2024/01/12 10:29:31;;;;;;;;;;;;;;;7.43;67.99;103395.31;7365520;19;19923;-64
2024/01/12 10:31:56;;;;;;;;;;;;;;;7.44;68.32;103386.66;7368322;19;20367;-64
2024/01/12 10:34:22;;;;;;;;;;;;;;;7.44;68.00;103389.25;7372486;19;19926;-63
2024/01/12 10:36:54;;;;;;;;;;;;;;;7.46;68.20;103387.63;7354414;19;19963;-64
2024/01/12 10:39:21;;;;;;;;;;;;;;;7.47;68.45;103384.19;7364838;19;20368;-63
2024/01/12 10:41:46;;;;;;;;;;;;;;;7.48;68.36;103380.75;7357553;19;19947;-64
2024/01/12 10:44:14;;;;;;;;;;;;;;;7.49;68.32;103381.63;7361036;19;20738;-64
2024/01/12 10:46:47;;;;;;;;;;;;;;;7.49;68.09;103389.41;7362895;19;19926;-64
2024/01/12 10:49:20;;;;;;;;;;;;;;;7.49;67.97;103387.69;7361201;19;19915;-64
2024/01/12 10:52:00;;;;;;;;;;;;;;;7.50;67.94;103388.56;7355365;19;19922;-64
2024/01/12 10:54:33;;;;;;;;;;;;;;;7.51;67.94;103379.97;7360498;19;21527;-64
2024/01/12 10:56:59;;;;;;;;;;;;;;;7.53;68.05;103379.19;7352756;19;19982;-64
2024/01/12 10:59:25;;;;;;;;;;;;;;;7.57;67.96;103379.28;7359296;19;20321;-64
2024/01/12 11:01:51;;;;;;;;;;;;;;;7.59;68.21;103382.81;7357780;19;19994;-63
2024/01/12 11:04:16;;;;;;;;;;;;;;;7.60;68.31;103384.56;7358285;19;19918;-64
2024/01/12 11:06:45;;;;;;;;;;;;;;;7.62;68.27;103378.59;7366185;19;19994;-63
2024/01/12 11:09:12;;;;;;;;;;;;;;;7.64;67.99;103376.03;7366426;19;19949;-64
2024/01/12 11:11:46;;;;;;;;;;;;;;;7.65;68.04;103363.06;7360454;19;19918;-64
2024/01/12 11:14:13;;;;;;;;;;;;;;;7.67;68.14;103361.44;7338386;19;19937;-64
2024/01/12 11:16:38;;;;;;;;;;;;;;;7.68;68.14;103370.09;7362929;19;19918;-64
2024/01/12 11:19:10;;;;;;;;;;;;;;;7.70;68.37;103365.81;7363248;19;19917;-63
2024/01/12 11:21:40;;;;;;;;;;;;;;;7.71;68.31;103363.28;7364047;19;20006;-64
2024/01/12 11:24:06;;;;;;;;;;;;;;;7.73;68.09;103366.81;7364203;19;20739;-64
2024/01/12 11:26:31;;;;;;;;;;;;;;;7.76;67.93;103350.44;7351105;19;20011;-64
2024/01/12 11:28:59;;;;;;;;;;;;;;;7.78;67.94;103352.22;7360232;19;19923;-64
2024/01/12 11:31:25;;;;;;;;;;;;;;;7.80;67.82;103344.47;7363105;19;20536;-64
2024/01/12 11:33:53;;;;;;;;;;;;;;;7.83;68.01;103341.09;7364776;19;19923;-63
2024/01/12 11:36:25;;;;;;;;;;;;;;;7.85;67.88;103340.28;7342027;19;20854;-63
2024/01/12 11:38:55;;;;;;;;;;;;;;;7.85;68.11;103329.88;7358039;19;19929;-64
2024/01/12 11:41:20;;;;;;;;;;;;;;;7.87;67.84;103336.03;7361944;19;19911;-64
2024/01/12 11:43:49;;;;;;;;;;;;;;;7.88;67.94;103335.19;7362211;19;20318;-64
2024/01/12 11:46:15;;;;;;;;;;;;;;;7.90;68.15;103343.91;7360371;19;19923;-64
2024/01/12 11:48:43;;;;;;;;;;;;;;;7.92;68.11;103330.97;7360810;19;19930;-63
2024/01/12 11:51:08;;;;;;;;;;;;;;;7.92;67.98;103331.84;7351729;19;19914;-64
2024/01/12 11:53:36;;;;;;;;;;;;;;;7.92;67.81;103334.47;7363073;19;19923;-64
2024/01/12 11:56:02;;;;;;;;;;;;;;;7.94;67.70;103330.19;7361032;19;19960;-64
2024/01/12 11:58:30;;;;;;;;;;;;;;;7.93;67.97;103327.53;7362212;19;19944;-64
2024/01/12 12:00:55;;;;;;;;;;;;;;;7.83;68.00;103313.38;7358967;19;19926;-63
2024/01/12 12:03:22;;;;;;;;;;;;;;;7.93;68.05;103325.81;7360354;19;19922;-64
2024/01/12 12:05:47;;;;;;;;;;;;;;;7.94;67.80;103319.75;7362271;19;19914;-63
2024/01/12 12:08:12;;;;;;;;;;;;;;;7.94;67.59;103330.19;7356621;19;19961;-64
2024/01/12 12:10:38;;;;;;;;;;;;;;;7.96;67.91;103322.44;7359057;19;20711;-64
2024/01/12 12:13:03;;;;;;;;;;;;;;;7.95;67.88;103321.53;7364957;19;20254;-64
2024/01/12 12:15:28;;;;;;;;;;;;;;;7.96;68.13;103318.13;7367615;19;19925;-64
2024/01/12 12:17:54;;;;;;;;;;;;;;;7.96;67.58;103309.44;7362844;19;19933;-64
2024/01/12 12:20:19;;;;;;;;;;;;;;;7.95;67.93;103303.31;7355416;19;19928;-64
2024/01/12 12:22:45;;;;;;;;;;;;;;;7.95;67.75;103300.72;7362413;19;19929;-64
2024/01/12 12:25:12;;;;;;;;;;;;;;;7.94;67.50;103296.34;7360913;19;19919;-64
2024/01/12 12:27:41;;;;;;;;;;;;;;;7.94;67.79;103285.94;7362415;19;19923;-64
2024/01/12 12:30:10;;;;;;;;;;;;;;;7.95;67.46;103292.91;7358977;19;19923;-64
2024/01/12 12:32:39;;;;;;;;;;;;;;;7.95;67.58;103285.09;7359205;19;19926;-63
2024/01/12 12:35:14;;;;;;;;;;;;;;;7.95;67.51;103279.91;7355952;19;19926;-64
2024/01/12 12:37:40;;;;;;;;;;;;;;;7.95;67.88;103264.28;7371264;19;19986;-64
2024/01/12 12:40:07;;;;;;;;;;;;;;;7.95;67.51;103259.09;7371033;19;20031;-64